sensor_id;sensor_type;location;lat;lon;timestamp;temperature;humidity
3542;DHT22;1785;47.388;8.538;2023-12-20T00:00:18;7.90;99.90
3542;DHT22;1785;47.388;8.538;2023-12-20T00:02:45;7.60;99.90
3542;DHT22;1785;47.388;8.538;2023-12-20T00:05:12;7.60;99.90
3542;DHT22;1785;47.388;8.538;2023-12-20T00:07:39;7.50;99.90
3542;DHT22;1785;47.388;8.538;2023-12-20T00:10:06;7.60;99.90
3542;DHT22;1785;47.388;8.538;2023-12-20T00:12:36;7.70;99.90
3542;DHT22;1785;47.388;8.538;2023-12-20T00:15:03;7.80;99.90
3542;DHT22;1785;47.388;8.538;2023-12-20T00:17:30;7.80;99.90
3542;DHT22;1785;47.388;8.538;2023-12-20T00:19:57;7.80;99.90
3542;DHT22;1785;47.388;8.538;2023-12-20T00:22:24;7.80;99.90
3542;DHT22;1785;47.388;8.538;2023-12-20T00:24:50;7.90;99.90
3542;DHT22;1785;47.388;8.538;2023-12-20T00:27:17;8.00;99.90
3542;DHT22;1785;47.388;8.538;2023-12-20T00:29:44;8.00;99.90
3542;DHT22;1785;47.388;8.538;2023-12-20T00:32:13;7.90;99.90
3542;DHT22;1785;47.388;8.538;2023-12-20T00:34:40;7.80;99.90
3542;DHT22;1785;47.388;8.538;2023-12-20T00:37:06;7.60;99.90
3542;DHT22;1785;47.388;8.538;2023-12-20T00:39:33;7.60;99.90
3542;DHT22;1785;47.388;8.538;2023-12-20T00:41:59;7.70;99.90
3542;DHT22;1785;47.388;8.538;2023-12-20T00:44:26;7.80;99.90
3542;DHT22;1785;47.388;8.538;2023-12-20T00:46:53;7.50;99.90
3542;DHT22;1785;47.388;8.538;2023-12-20T00:49:21;7.30;99.90
3542;DHT22;1785;47.388;8.538;2023-12-20T00:51:47;7.40;99.90
3542;DHT22;1785;47.388;8.538;2023-12-20T00:54:16;7.50;99.90
3542;DHT22;1785;47.388;8.538;2023-12-20T00:56:42;7.40;99.90
3542;DHT22;1785;47.388;8.538;2023-12-20T00:59:09;7.50;99.90
3542;DHT22;1785;47.388;8.538;2023-12-20T01:01:36;7.60;99.90
3542;DHT22;1785;47.388;8.538;2023-12-20T01:04:03;7.70;99.90
3542;DHT22;1785;47.388;8.538;2023-12-20T01:06:29;7.60;99.90
3542;DHT22;1785;47.388;8.538;2023-12-20T01:08:56;7.50;99.90
3542;DHT22;1785;47.388;8.538;2023-12-20T01:11:23;7.40;99.90
3542;DHT22;1785;47.388;8.538;2023-12-20T01:13:49;7.40;99.90
3542;DHT22;1785;47.388;8.538;2023-12-20T01:16:16;7.20;99.90
3542;DHT22;1785;47.388;8.538;2023-12-20T01:18:42;6.90;99.90
3542;DHT22;1785;47.388;8.538;2023-12-20T01:21:09;6.80;99.90
3542;DHT22;1785;47.388;8.538;2023-12-20T01:23:36;6.90;99.90
3542;DHT22;1785;47.388;8.538;2023-12-20T01:26:03;7.10;99.90
3542;DHT22;1785;47.388;8.538;2023-12-20T01:28:30;7.30;99.90
3542;DHT22;1785;47.388;8.538;2023-12-20T01:30:57;7.30;99.90
3542;DHT22;1785;47.388;8.538;2023-12-20T01:33:23;7.10;99.90
3542;DHT22;1785;47.388;8.538;2023-12-20T01:35:50;7.10;99.90
3542;DHT22;1785;47.388;8.538;2023-12-20T01:38:17;7.00;99.90
3542;DHT22;1785;47.388;8.538;2023-12-20T01:40:44;7.20;99.90
3542;DHT22;1785;47.388;8.538;2023-12-20T01:43:11;7.30;99.90
3542;DHT22;1785;47.388;8.538;2023-12-20T01:45:38;7.30;99.90
3542;DHT22;1785;47.388;8.538;2023-12-20T01:48:06;7.50;99.90
3542;DHT22;1785;47.388;8.538;2023-12-20T01:50:36;7.60;99.90
3542;DHT22;1785;47.388;8.538;2023-12-20T01:53:04;7.50;99.90
3542;DHT22;1785;47.388;8.538;2023-12-20T01:55:34;7.60;99.90
3542;DHT22;1785;47.388;8.538;2023-12-20T01:58:01;7.70;99.90
3542;DHT22;1785;47.388;8.538;2023-12-20T02:00:29;7.80;99.90
3542;DHT22;1785;47.388;8.538;2023-12-20T02:02:56;7.90;99.90
3542;DHT22;1785;47.388;8.538;2023-12-20T02:05:24;7.80;99.90
3542;DHT22;1785;47.388;8.538;2023-12-20T02:07:53;7.80;99.90
3542;DHT22;1785;47.388;8.538;2023-12-20T02:10:20;7.80;99.90
3542;DHT22;1785;47.388;8.538;2023-12-20T02:12:47;7.60;99.90
3542;DHT22;1785;47.388;8.538;2023-12-20T02:15:14;7.60;99.90
3542;DHT22;1785;47.388;8.538;2023-12-20T02:17:41;7.70;99.90
3542;DHT22;1785;47.388;8.538;2023-12-20T02:20:08;7.80;99.90
3542;DHT22;1785;47.388;8.538;2023-12-20T02:22:35;7.80;99.90
3542;DHT22;1785;47.388;8.538;2023-12-20T02:25:02;7.80;99.90
3542;DHT22;1785;47.388;8.538;2023-12-20T02:27:29;7.80;99.90
3542;DHT22;1785;47.388;8.538;2023-12-20T02:29:56;7.80;99.90
3542;DHT22;1785;47.388;8.538;2023-12-20T02:32:23;7.90;99.90
3542;DHT22;1785;47.388;8.538;2023-12-20T02:34:52;7.70;99.90
3542;DHT22;1785;47.388;8.538;2023-12-20T02:37:18;7.80;99.90
3542;DHT22;1785;47.388;8.538;2023-12-20T02:39:46;7.90;99.90
3542;DHT22;1785;47.388;8.538;2023-12-20T02:42:13;7.70;99.90
3542;DHT22;1785;47.388;8.538;2023-12-20T02:44:39;7.60;99.90
3542;DHT22;1785;47.388;8.538;2023-12-20T02:47:06;7.50;99.90
3542;DHT22;1785;47.388;8.538;2023-12-20T02:49:32;7.40;99.90
3542;DHT22;1785;47.388;8.538;2023-12-20T02:51:59;7.40;99.90
3542;DHT22;1785;47.388;8.538;2023-12-20T02:54:26;7.40;99.90
3542;DHT22;1785;47.388;8.538;2023-12-20T02:56:53;7.50;99.90
3542;DHT22;1785;47.388;8.538;2023-12-20T02:59:20;7.30;99.90
3542;DHT22;1785;47.388;8.538;2023-12-20T03:01:47;7.20;99.90
3542;DHT22;1785;47.388;8.538;2023-12-20T03:04:14;7.10;99.90
3542;DHT22;1785;47.388;8.538;2023-12-20T03:06:40;7.00;99.90
3542;DHT22;1785;47.388;8.538;2023-12-20T03:09:07;7.00;99.90
3542;DHT22;1785;47.388;8.538;2023-12-20T03:11:34;7.00;99.90
3542;DHT22;1785;47.388;8.538;2023-12-20T03:14:01;7.00;99.90
3542;DHT22;1785;47.388;8.538;2023-12-20T03:16:27;7.20;99.90
3542;DHT22;1785;47.388;8.538;2023-12-20T03:18:54;7.20;99.90
3542;DHT22;1785;47.388;8.538;2023-12-20T03:21:20;7.40;99.90
3542;DHT22;1785;47.388;8.538;2023-12-20T03:23:48;7.50;99.90
3542;DHT22;1785;47.388;8.538;2023-12-20T03:26:14;7.60;99.90
3542;DHT22;1785;47.388;8.538;2023-12-20T03:28:41;7.70;99.90
3542;DHT22;1785;47.388;8.538;2023-12-20T03:31:09;7.80;99.90
3542;DHT22;1785;47.388;8.538;2023-12-20T03:33:36;7.60;99.90
3542;DHT22;1785;47.388;8.538;2023-12-20T03:36:03;7.60;99.90
3542;DHT22;1785;47.388;8.538;2023-12-20T03:38:29;7.60;99.90
3542;DHT22;1785;47.388;8.538;2023-12-20T03:40:56;7.50;99.90
3542;DHT22;1785;47.388;8.538;2023-12-20T03:43:23;7.30;99.90
3542;DHT22;1785;47.388;8.538;2023-12-20T03:45:49;7.20;99.90
3542;DHT22;1785;47.388;8.538;2023-12-20T03:48:16;7.30;99.90
3542;DHT22;1785;47.388;8.538;2023-12-20T03:50:43;7.30;99.90
3542;DHT22;1785;47.388;8.538;2023-12-20T03:53:10;7.40;99.90
3542;DHT22;1785;47.388;8.538;2023-12-20T03:55:36;7.30;99.90
3542;DHT22;1785;47.388;8.538;2023-12-20T03:58:03;7.30;99.90
3542;DHT22;1785;47.388;8.538;2023-12-20T04:00:29;7.00;99.90
3542;DHT22;1785;47.388;8.538;2023-12-20T04:02:56;7.00;99.90
3542;DHT22;1785;47.388;8.538;2023-12-20T04:05:23;7.10;99.90
3542;DHT22;1785;47.388;8.538;2023-12-20T04:07:50;7.30;99.90
3542;DHT22;1785;47.388;8.538;2023-12-20T04:10:16;7.40;99.90
3542;DHT22;1785;47.388;8.538;2023-12-20T04:12:42;7.30;99.90
3542;DHT22;1785;47.388;8.538;2023-12-20T04:15:09;7.20;99.90
3542;DHT22;1785;47.388;8.538;2023-12-20T04:17:37;7.30;99.90
3542;DHT22;1785;47.388;8.538;2023-12-20T04:20:05;7.60;99.90
3542;DHT22;1785;47.388;8.538;2023-12-20T04:22:32;7.50;99.90
3542;DHT22;1785;47.388;8.538;2023-12-20T04:24:59;7.70;99.90
3542;DHT22;1785;47.388;8.538;2023-12-20T04:27:25;7.80;99.90
3542;DHT22;1785;47.388;8.538;2023-12-20T04:29:52;7.80;99.90
3542;DHT22;1785;47.388;8.538;2023-12-20T04:32:19;7.90;99.90
3542;DHT22;1785;47.388;8.538;2023-12-20T04:34:45;7.80;99.90
3542;DHT22;1785;47.388;8.538;2023-12-20T04:37:12;7.60;99.90
3542;DHT22;1785;47.388;8.538;2023-12-20T04:39:39;7.80;99.90
3542;DHT22;1785;47.388;8.538;2023-12-20T04:42:07;7.70;99.90
3542;DHT22;1785;47.388;8.538;2023-12-20T04:44:34;7.60;99.90
3542;DHT22;1785;47.388;8.538;2023-12-20T04:47:00;7.60;99.90
3542;DHT22;1785;47.388;8.538;2023-12-20T04:49:28;7.60;99.90
3542;DHT22;1785;47.388;8.538;2023-12-20T04:51:54;7.50;99.90
3542;DHT22;1785;47.388;8.538;2023-12-20T04:54:21;7.70;99.90
3542;DHT22;1785;47.388;8.538;2023-12-20T04:56:49;7.90;99.90
3542;DHT22;1785;47.388;8.538;2023-12-20T04:59:16;8.00;99.90
3542;DHT22;1785;47.388;8.538;2023-12-20T05:01:42;7.70;99.90
3542;DHT22;1785;47.388;8.538;2023-12-20T05:04:09;7.80;99.90
3542;DHT22;1785;47.388;8.538;2023-12-20T05:06:36;7.90;99.90
3542;DHT22;1785;47.388;8.538;2023-12-20T05:09:03;7.90;99.90
3542;DHT22;1785;47.388;8.538;2023-12-20T05:11:30;7.70;99.90
3542;DHT22;1785;47.388;8.538;2023-12-20T05:13:57;7.70;99.90
3542;DHT22;1785;47.388;8.538;2023-12-20T05:16:24;7.80;99.90
3542;DHT22;1785;47.388;8.538;2023-12-20T05:18:51;7.90;99.90
3542;DHT22;1785;47.388;8.538;2023-12-20T05:21:18;7.80;99.90
3542;DHT22;1785;47.388;8.538;2023-12-20T05:23:45;7.90;99.90
3542;DHT22;1785;47.388;8.538;2023-12-20T05:26:12;8.00;99.90
3542;DHT22;1785;47.388;8.538;2023-12-20T05:28:39;8.10;99.90
3542;DHT22;1785;47.388;8.538;2023-12-20T05:31:07;8.10;99.90
3542;DHT22;1785;47.388;8.538;2023-12-20T05:33:33;8.20;99.90
3542;DHT22;1785;47.388;8.538;2023-12-20T05:36:00;8.10;99.90
3542;DHT22;1785;47.388;8.538;2023-12-20T05:38:27;8.20;99.90
3542;DHT22;1785;47.388;8.538;2023-12-20T05:40:53;8.20;99.90
3542;DHT22;1785;47.388;8.538;2023-12-20T05:43:21;8.30;99.90
3542;DHT22;1785;47.388;8.538;2023-12-20T05:45:47;8.30;99.90
3542;DHT22;1785;47.388;8.538;2023-12-20T05:48:15;8.30;99.90
3542;DHT22;1785;47.388;8.538;2023-12-20T05:50:42;8.00;99.90
3542;DHT22;1785;47.388;8.538;2023-12-20T05:53:08;8.00;99.90
3542;DHT22;1785;47.388;8.538;2023-12-20T05:55:35;8.10;99.90
3542;DHT22;1785;47.388;8.538;2023-12-20T05:58:02;8.10;99.90
3542;DHT22;1785;47.388;8.538;2023-12-20T06:00:28;8.30;99.90
3542;DHT22;1785;47.388;8.538;2023-12-20T06:02:55;8.30;99.90
3542;DHT22;1785;47.388;8.538;2023-12-20T06:05:22;8.30;99.90
3542;DHT22;1785;47.388;8.538;2023-12-20T06:07:48;8.30;99.90
3542;DHT22;1785;47.388;8.538;2023-12-20T06:10:19;8.10;99.90
3542;DHT22;1785;47.388;8.538;2023-12-20T06:12:47;8.10;99.90
3542;DHT22;1785;47.388;8.538;2023-12-20T06:15:16;8.30;99.90
3542;DHT22;1785;47.388;8.538;2023-12-20T06:17:42;8.30;99.90
3542;DHT22;1785;47.388;8.538;2023-12-20T06:20:10;8.30;99.90
3542;DHT22;1785;47.388;8.538;2023-12-20T06:22:39;8.30;99.90
3542;DHT22;1785;47.388;8.538;2023-12-20T06:25:06;8.40;99.90
3542;DHT22;1785;47.388;8.538;2023-12-20T06:27:33;8.40;99.90
3542;DHT22;1785;47.388;8.538;2023-12-20T06:30:00;8.30;99.90
3542;DHT22;1785;47.388;8.538;2023-12-20T06:32:27;8.40;99.90
3542;DHT22;1785;47.388;8.538;2023-12-20T06:34:55;8.40;99.90
3542;DHT22;1785;47.388;8.538;2023-12-20T06:37:21;8.40;99.90
3542;DHT22;1785;47.388;8.538;2023-12-20T06:39:48;8.20;99.90
3542;DHT22;1785;47.388;8.538;2023-12-20T06:42:15;8.00;99.90
3542;DHT22;1785;47.388;8.538;2023-12-20T06:44:41;8.10;99.90
3542;DHT22;1785;47.388;8.538;2023-12-20T06:47:12;8.30;99.90
3542;DHT22;1785;47.388;8.538;2023-12-20T06:49:40;8.40;99.90
3542;DHT22;1785;47.388;8.538;2023-12-20T06:52:06;8.40;99.90
3542;DHT22;1785;47.388;8.538;2023-12-20T06:54:34;8.40;99.90
3542;DHT22;1785;47.388;8.538;2023-12-20T06:57:01;8.40;99.90
3542;DHT22;1785;47.388;8.538;2023-12-20T06:59:28;8.50;99.90
3542;DHT22;1785;47.388;8.538;2023-12-20T07:01:55;8.60;99.90
3542;DHT22;1785;47.388;8.538;2023-12-20T07:04:22;8.20;99.90
3542;DHT22;1785;47.388;8.538;2023-12-20T07:06:48;8.20;99.90
3542;DHT22;1785;47.388;8.538;2023-12-20T07:09:17;8.30;99.90
3542;DHT22;1785;47.388;8.538;2023-12-20T07:11:43;8.40;99.90
3542;DHT22;1785;47.388;8.538;2023-12-20T07:14:11;8.40;99.90
3542;DHT22;1785;47.388;8.538;2023-12-20T07:16:37;8.50;99.90
3542;DHT22;1785;47.388;8.538;2023-12-20T07:19:04;8.60;99.90
3542;DHT22;1785;47.388;8.538;2023-12-20T07:21:30;8.60;99.90
3542;DHT22;1785;47.388;8.538;2023-12-20T07:23:57;8.60;99.90
3542;DHT22;1785;47.388;8.538;2023-12-20T07:26:24;8.60;99.90
3542;DHT22;1785;47.388;8.538;2023-12-20T07:28:50;8.70;99.90
3542;DHT22;1785;47.388;8.538;2023-12-20T07:31:17;8.70;99.90
3542;DHT22;1785;47.388;8.538;2023-12-20T07:33:43;8.80;99.90
3542;DHT22;1785;47.388;8.538;2023-12-20T07:36:10;8.80;99.90
3542;DHT22;1785;47.388;8.538;2023-12-20T07:38:37;8.80;99.90
3542;DHT22;1785;47.388;8.538;2023-12-20T07:41:03;8.60;99.90
3542;DHT22;1785;47.388;8.538;2023-12-20T07:43:30;8.60;99.90
3542;DHT22;1785;47.388;8.538;2023-12-20T07:45:57;8.60;99.90
3542;DHT22;1785;47.388;8.538;2023-12-20T07:48:24;8.60;99.90
3542;DHT22;1785;47.388;8.538;2023-12-20T07:50:51;8.60;99.90
3542;DHT22;1785;47.388;8.538;2023-12-20T07:53:19;8.60;99.90
3542;DHT22;1785;47.388;8.538;2023-12-20T07:55:46;8.50;99.90
3542;DHT22;1785;47.388;8.538;2023-12-20T07:58:12;8.10;99.90
3542;DHT22;1785;47.388;8.538;2023-12-20T08:00:39;8.00;99.90
3542;DHT22;1785;47.388;8.538;2023-12-20T08:03:05;8.20;99.90
3542;DHT22;1785;47.388;8.538;2023-12-20T08:05:33;8.40;99.90
3542;DHT22;1785;47.388;8.538;2023-12-20T08:07:59;8.40;99.90
3542;DHT22;1785;47.388;8.538;2023-12-20T08:10:26;8.50;99.90
3542;DHT22;1785;47.388;8.538;2023-12-20T08:12:55;8.60;99.90
3542;DHT22;1785;47.388;8.538;2023-12-20T08:15:21;8.60;99.90
3542;DHT22;1785;47.388;8.538;2023-12-20T08:17:48;8.50;99.90
3542;DHT22;1785;47.388;8.538;2023-12-20T08:20:16;8.40;99.90
3542;DHT22;1785;47.388;8.538;2023-12-20T08:22:44;8.30;99.90
3542;DHT22;1785;47.388;8.538;2023-12-20T08:25:10;8.30;99.90
3542;DHT22;1785;47.388;8.538;2023-12-20T08:27:39;8.30;99.90
3542;DHT22;1785;47.388;8.538;2023-12-20T08:30:08;8.40;99.90
3542;DHT22;1785;47.388;8.538;2023-12-20T08:32:35;8.40;99.90
3542;DHT22;1785;47.388;8.538;2023-12-20T08:35:02;8.30;99.90
3542;DHT22;1785;47.388;8.538;2023-12-20T08:37:29;8.30;99.90
3542;DHT22;1785;47.388;8.538;2023-12-20T08:39:57;8.00;99.90
3542;DHT22;1785;47.388;8.538;2023-12-20T08:42:23;7.60;99.90
3542;DHT22;1785;47.388;8.538;2023-12-20T08:44:50;7.70;99.90
3542;DHT22;1785;47.388;8.538;2023-12-20T08:47:17;7.80;99.90
3542;DHT22;1785;47.388;8.538;2023-12-20T08:49:44;7.80;99.90
3542;DHT22;1785;47.388;8.538;2023-12-20T08:52:12;7.80;99.90
3542;DHT22;1785;47.388;8.538;2023-12-20T08:54:38;7.90;99.90
3542;DHT22;1785;47.388;8.538;2023-12-20T08:57:05;7.50;99.90
3542;DHT22;1785;47.388;8.538;2023-12-20T08:59:32;7.40;99.90
3542;DHT22;1785;47.388;8.538;2023-12-20T09:01:59;7.60;99.90
3542;DHT22;1785;47.388;8.538;2023-12-20T09:04:25;7.90;99.90
3542;DHT22;1785;47.388;8.538;2023-12-20T09:06:52;7.90;99.90
3542;DHT22;1785;47.388;8.538;2023-12-20T09:09:18;8.10;99.90
3542;DHT22;1785;47.388;8.538;2023-12-20T09:11:45;8.30;99.90
3542;DHT22;1785;47.388;8.538;2023-12-20T09:14:14;8.30;99.90
3542;DHT22;1785;47.388;8.538;2023-12-20T09:16:40;8.30;99.90
3542;DHT22;1785;47.388;8.538;2023-12-20T09:19:07;8.40;99.90
3542;DHT22;1785;47.388;8.538;2023-12-20T09:21:34;8.40;99.90
3542;DHT22;1785;47.388;8.538;2023-12-20T09:24:00;8.20;99.90
3542;DHT22;1785;47.388;8.538;2023-12-20T09:26:27;7.90;99.90
3542;DHT22;1785;47.388;8.538;2023-12-20T09:28:53;7.50;99.90
3542;DHT22;1785;47.388;8.538;2023-12-20T09:31:20;7.70;99.90
3542;DHT22;1785;47.388;8.538;2023-12-20T09:33:48;7.50;99.90
3542;DHT22;1785;47.388;8.538;2023-12-20T09:36:14;7.70;99.90
3542;DHT22;1785;47.388;8.538;2023-12-20T09:38:41;7.80;99.90
3542;DHT22;1785;47.388;8.538;2023-12-20T09:41:08;7.70;99.90
3542;DHT22;1785;47.388;8.538;2023-12-20T09:43:37;7.50;99.90
3542;DHT22;1785;47.388;8.538;2023-12-20T09:46:05;7.50;99.90
3542;DHT22;1785;47.388;8.538;2023-12-20T09:48:33;7.30;99.90
3542;DHT22;1785;47.388;8.538;2023-12-20T09:51:00;7.40;99.90
3542;DHT22;1785;47.388;8.538;2023-12-20T09:53:28;7.50;99.90
3542;DHT22;1785;47.388;8.538;2023-12-20T09:55:58;7.50;99.90
3542;DHT22;1785;47.388;8.538;2023-12-20T09:58:25;7.60;99.90
3542;DHT22;1785;47.388;8.538;2023-12-20T10:00:53;7.50;99.90
3542;DHT22;1785;47.388;8.538;2023-12-20T10:03:24;7.40;99.90
3542;DHT22;1785;47.388;8.538;2023-12-20T10:05:54;7.50;99.90
3542;DHT22;1785;47.388;8.538;2023-12-20T10:08:24;7.70;99.90
3542;DHT22;1785;47.388;8.538;2023-12-20T10:10:50;7.70;99.90
3542;DHT22;1785;47.388;8.538;2023-12-20T10:13:17;7.70;99.90
3542;DHT22;1785;47.388;8.538;2023-12-20T10:15:43;7.70;99.90
3542;DHT22;1785;47.388;8.538;2023-12-20T10:18:12;7.80;99.90
3542;DHT22;1785;47.388;8.538;2023-12-20T10:20:40;8.00;99.90
3542;DHT22;1785;47.388;8.538;2023-12-20T10:23:08;8.00;99.90
3542;DHT22;1785;47.388;8.538;2023-12-20T10:25:35;8.10;99.90
3542;DHT22;1785;47.388;8.538;2023-12-20T10:28:12;8.10;99.90
3542;DHT22;1785;47.388;8.538;2023-12-20T10:30:39;8.20;99.90
3542;DHT22;1785;47.388;8.538;2023-12-20T10:33:07;8.10;99.90
3542;DHT22;1785;47.388;8.538;2023-12-20T10:35:35;8.20;99.90
3542;DHT22;1785;47.388;8.538;2023-12-20T10:38:04;8.20;99.90
3542;DHT22;1785;47.388;8.538;2023-12-20T10:40:32;8.30;99.90
3542;DHT22;1785;47.388;8.538;2023-12-20T10:43:01;8.30;99.90
3542;DHT22;1785;47.388;8.538;2023-12-20T10:45:28;8.20;99.90
3542;DHT22;1785;47.388;8.538;2023-12-20T10:47:56;8.40;99.90
3542;DHT22;1785;47.388;8.538;2023-12-20T10:50:25;8.60;99.90
3542;DHT22;1785;47.388;8.538;2023-12-20T10:52:52;8.30;99.90
3542;DHT22;1785;47.388;8.538;2023-12-20T10:55:22;8.20;99.90
3542;DHT22;1785;47.388;8.538;2023-12-20T10:57:51;8.30;99.90
3542;DHT22;1785;47.388;8.538;2023-12-20T11:00:19;8.20;99.90
3542;DHT22;1785;47.388;8.538;2023-12-20T11:02:49;8.00;99.90
3542;DHT22;1785;47.388;8.538;2023-12-20T11:05:25;8.30;99.90
3542;DHT22;1785;47.388;8.538;2023-12-20T11:07:58;8.60;99.90
3542;DHT22;1785;47.388;8.538;2023-12-20T11:10:31;8.40;99.90
3542;DHT22;1785;47.388;8.538;2023-12-20T11:13:08;8.10;99.90
3542;DHT22;1785;47.388;8.538;2023-12-20T11:15:36;8.10;99.90
3542;DHT22;1785;47.388;8.538;2023-12-20T11:18:04;8.00;99.90
3542;DHT22;1785;47.388;8.538;2023-12-20T11:20:36;8.20;99.90
3542;DHT22;1785;47.388;8.538;2023-12-20T11:23:04;8.40;99.90
3542;DHT22;1785;47.388;8.538;2023-12-20T11:25:46;8.40;99.90
3542;DHT22;1785;47.388;8.538;2023-12-20T11:28:15;8.10;99.90
3542;DHT22;1785;47.388;8.538;2023-12-20T11:30:47;8.10;99.90
3542;DHT22;1785;47.388;8.538;2023-12-20T11:33:14;8.10;99.90
3542;DHT22;1785;47.388;8.538;2023-12-20T11:35:41;8.20;99.90
3542;DHT22;1785;47.388;8.538;2023-12-20T11:38:08;8.00;99.90
3542;DHT22;1785;47.388;8.538;2023-12-20T11:40:35;8.00;99.90
3542;DHT22;1785;47.388;8.538;2023-12-20T11:43:03;8.00;99.90
3542;DHT22;1785;47.388;8.538;2023-12-20T11:45:30;7.80;99.90
3542;DHT22;1785;47.388;8.538;2023-12-20T11:47:58;7.70;99.90
3542;DHT22;1785;47.388;8.538;2023-12-20T11:50:24;7.80;99.90
3542;DHT22;1785;47.388;8.538;2023-12-20T11:52:52;7.90;99.90
3542;DHT22;1785;47.388;8.538;2023-12-20T11:55:19;7.70;99.90
3542;DHT22;1785;47.388;8.538;2023-12-20T11:57:45;7.80;99.90
3542;DHT22;1785;47.388;8.538;2023-12-20T12:00:14;8.20;99.90
3542;DHT22;1785;47.388;8.538;2023-12-20T12:02:41;8.10;99.90
3542;DHT22;1785;47.388;8.538;2023-12-20T12:05:08;7.90;99.90
3542;DHT22;1785;47.388;8.538;2023-12-20T12:07:35;7.80;99.90
3542;DHT22;1785;47.388;8.538;2023-12-20T12:10:01;7.80;99.90
3542;DHT22;1785;47.388;8.538;2023-12-20T12:12:29;7.70;99.90
3542;DHT22;1785;47.388;8.538;2023-12-20T12:14:57;7.50;99.90
3542;DHT22;1785;47.388;8.538;2023-12-20T12:17:23;7.30;99.90
3542;DHT22;1785;47.388;8.538;2023-12-20T12:20:02;7.40;99.90
3542;DHT22;1785;47.388;8.538;2023-12-20T12:22:30;7.50;99.90
3542;DHT22;1785;47.388;8.538;2023-12-20T12:24:59;7.40;99.90
3542;DHT22;1785;47.388;8.538;2023-12-20T12:27:27;7.40;99.90
3542;DHT22;1785;47.388;8.538;2023-12-20T12:30:01;7.50;99.90
3542;DHT22;1785;47.388;8.538;2023-12-20T12:32:29;7.60;99.90
3542;DHT22;1785;47.388;8.538;2023-12-20T12:34:56;7.70;99.90
3542;DHT22;1785;47.388;8.538;2023-12-20T12:37:22;7.80;99.90
3542;DHT22;1785;47.388;8.538;2023-12-20T12:39:50;7.90;99.90
3542;DHT22;1785;47.388;8.538;2023-12-20T12:42:19;7.70;99.90
3542;DHT22;1785;47.388;8.538;2023-12-20T12:44:47;7.80;99.90
3542;DHT22;1785;47.388;8.538;2023-12-20T12:47:14;7.70;99.90
3542;DHT22;1785;47.388;8.538;2023-12-20T12:49:41;7.90;99.90
3542;DHT22;1785;47.388;8.538;2023-12-20T12:52:08;7.80;99.90
3542;DHT22;1785;47.388;8.538;2023-12-20T12:54:34;7.80;99.90
3542;DHT22;1785;47.388;8.538;2023-12-20T12:57:02;7.70;99.90
3542;DHT22;1785;47.388;8.538;2023-12-20T12:59:29;7.90;99.90
3542;DHT22;1785;47.388;8.538;2023-12-20T13:01:55;8.10;99.90
3542;DHT22;1785;47.388;8.538;2023-12-20T13:04:22;8.20;99.90
3542;DHT22;1785;47.388;8.538;2023-12-20T13:06:49;7.80;99.90
3542;DHT22;1785;47.388;8.538;2023-12-20T13:09:16;7.80;99.90
3542;DHT22;1785;47.388;8.538;2023-12-20T13:11:44;7.80;99.90
3542;DHT22;1785;47.388;8.538;2023-12-20T13:14:11;7.60;99.90
3542;DHT22;1785;47.388;8.538;2023-12-20T13:16:41;7.70;99.90
3542;DHT22;1785;47.388;8.538;2023-12-20T13:19:08;7.80;99.90
3542;DHT22;1785;47.388;8.538;2023-12-20T13:21:35;7.60;99.90
3542;DHT22;1785;47.388;8.538;2023-12-20T13:24:03;7.50;99.90
3542;DHT22;1785;47.388;8.538;2023-12-20T13:26:30;7.70;99.90
3542;DHT22;1785;47.388;8.538;2023-12-20T13:28:56;7.60;99.90
3542;DHT22;1785;47.388;8.538;2023-12-20T13:31:24;7.60;99.90
3542;DHT22;1785;47.388;8.538;2023-12-20T13:33:50;7.70;99.90
3542;DHT22;1785;47.388;8.538;2023-12-20T13:36:18;7.80;99.90
3542;DHT22;1785;47.388;8.538;2023-12-20T13:38:45;7.70;99.90
3542;DHT22;1785;47.388;8.538;2023-12-20T13:41:11;7.80;99.90
3542;DHT22;1785;47.388;8.538;2023-12-20T13:43:39;7.40;99.90
3542;DHT22;1785;47.388;8.538;2023-12-20T13:46:05;7.30;99.90
3542;DHT22;1785;47.388;8.538;2023-12-20T13:48:32;7.50;99.90
3542;DHT22;1785;47.388;8.538;2023-12-20T13:50:59;7.70;99.90
3542;DHT22;1785;47.388;8.538;2023-12-20T13:53:26;7.90;99.90
3542;DHT22;1785;47.388;8.538;2023-12-20T13:55:52;7.90;99.90
3542;DHT22;1785;47.388;8.538;2023-12-20T13:58:20;7.80;99.90
3542;DHT22;1785;47.388;8.538;2023-12-20T14:00:47;7.70;99.90
3542;DHT22;1785;47.388;8.538;2023-12-20T14:03:13;7.50;99.90
3542;DHT22;1785;47.388;8.538;2023-12-20T14:05:40;7.30;99.90
3542;DHT22;1785;47.388;8.538;2023-12-20T14:08:07;7.30;99.90
3542;DHT22;1785;47.388;8.538;2023-12-20T14:10:35;7.10;99.90
3542;DHT22;1785;47.388;8.538;2023-12-20T14:13:02;7.20;99.90
3542;DHT22;1785;47.388;8.538;2023-12-20T14:15:29;7.40;99.90
3542;DHT22;1785;47.388;8.538;2023-12-20T14:17:56;7.40;99.90
3542;DHT22;1785;47.388;8.538;2023-12-20T14:20:23;7.40;99.90
3542;DHT22;1785;47.388;8.538;2023-12-20T14:22:49;7.20;99.90
3542;DHT22;1785;47.388;8.538;2023-12-20T14:25:15;7.40;99.90
3542;DHT22;1785;47.388;8.538;2023-12-20T14:27:42;7.20;99.90
3542;DHT22;1785;47.388;8.538;2023-12-20T14:30:10;6.80;99.90
3542;DHT22;1785;47.388;8.538;2023-12-20T14:32:39;6.80;99.90
3542;DHT22;1785;47.388;8.538;2023-12-20T14:35:07;6.90;99.90
3542;DHT22;1785;47.388;8.538;2023-12-20T14:37:34;6.90;99.90
3542;DHT22;1785;47.388;8.538;2023-12-20T14:40:00;6.80;99.90
3542;DHT22;1785;47.388;8.538;2023-12-20T14:42:27;6.60;99.90
3542;DHT22;1785;47.388;8.538;2023-12-20T14:44:54;6.60;99.90
3542;DHT22;1785;47.388;8.538;2023-12-20T14:47:21;6.80;99.90
3542;DHT22;1785;47.388;8.538;2023-12-20T14:49:49;6.90;99.90
3542;DHT22;1785;47.388;8.538;2023-12-20T14:52:17;6.90;99.90
3542;DHT22;1785;47.388;8.538;2023-12-20T14:54:43;7.20;99.90
3542;DHT22;1785;47.388;8.538;2023-12-20T14:57:10;7.10;99.90
3542;DHT22;1785;47.388;8.538;2023-12-20T14:59:36;7.10;99.90
3542;DHT22;1785;47.388;8.538;2023-12-20T15:02:03;7.10;99.90
3542;DHT22;1785;47.388;8.538;2023-12-20T15:04:30;6.80;99.90
3542;DHT22;1785;47.388;8.538;2023-12-20T15:06:57;6.60;99.90
3542;DHT22;1785;47.388;8.538;2023-12-20T15:09:24;6.70;99.90
3542;DHT22;1785;47.388;8.538;2023-12-20T15:11:51;6.60;99.90
3542;DHT22;1785;47.388;8.538;2023-12-20T15:14:17;6.80;99.90
3542;DHT22;1785;47.388;8.538;2023-12-20T15:16:45;6.90;99.90
3542;DHT22;1785;47.388;8.538;2023-12-20T15:19:12;7.10;99.90
3542;DHT22;1785;47.388;8.538;2023-12-20T15:21:39;6.80;99.90
3542;DHT22;1785;47.388;8.538;2023-12-20T15:24:07;6.90;99.90
3542;DHT22;1785;47.388;8.538;2023-12-20T15:26:41;6.90;99.90
3542;DHT22;1785;47.388;8.538;2023-12-20T15:29:08;7.00;99.90
3542;DHT22;1785;47.388;8.538;2023-12-20T15:31:35;7.20;99.90
3542;DHT22;1785;47.388;8.538;2023-12-20T15:34:03;7.40;99.90
3542;DHT22;1785;47.388;8.538;2023-12-20T15:36:29;7.60;99.90
3542;DHT22;1785;47.388;8.538;2023-12-20T15:38:55;7.50;99.90
3542;DHT22;1785;47.388;8.538;2023-12-20T15:41:22;7.20;99.90
3542;DHT22;1785;47.388;8.538;2023-12-20T15:43:50;7.50;99.90
3542;DHT22;1785;47.388;8.538;2023-12-20T15:46:17;7.60;99.90
3542;DHT22;1785;47.388;8.538;2023-12-20T15:48:43;7.10;99.90
3542;DHT22;1785;47.388;8.538;2023-12-20T15:51:10;7.00;99.90
3542;DHT22;1785;47.388;8.538;2023-12-20T15:53:37;7.10;99.90
3542;DHT22;1785;47.388;8.538;2023-12-20T15:56:04;7.00;99.90
3542;DHT22;1785;47.388;8.538;2023-12-20T15:58:30;6.90;99.90
3542;DHT22;1785;47.388;8.538;2023-12-20T16:00:57;7.00;99.90
3542;DHT22;1785;47.388;8.538;2023-12-20T16:03:24;7.20;99.90
3542;DHT22;1785;47.388;8.538;2023-12-20T16:05:50;7.30;99.90
3542;DHT22;1785;47.388;8.538;2023-12-20T16:08:17;7.50;99.90
3542;DHT22;1785;47.388;8.538;2023-12-20T16:10:43;7.50;99.90
3542;DHT22;1785;47.388;8.538;2023-12-20T16:13:09;7.10;99.90
3542;DHT22;1785;47.388;8.538;2023-12-20T16:15:36;6.90;99.90